createdAt,value
2023-02-11T00:01:06.705Z,81.16
2023-02-11T00:03:33.745Z,80.94
2023-02-11T00:06:01.569Z,81.30
2023-02-11T00:08:28.756Z,81.20
2023-02-11T00:10:57.060Z,81.28
2023-02-11T00:13:24.908Z,81.28
2023-02-11T00:15:52.057Z,81.14
2023-02-11T00:18:19.304Z,81.19
2023-02-11T00:20:46.236Z,81.17
2023-02-11T00:23:13.151Z,81.17
2023-02-11T00:25:44.416Z,81.19
2023-02-11T00:28:12.082Z,81.20
2023-02-11T00:30:39.213Z,81.09
2023-02-11T00:33:06.214Z,81.17
2023-02-11T00:35:33.167Z,81.28
2023-02-11T00:38:00.063Z,81.46
2023-02-11T00:40:26.961Z,81.53
2023-02-11T00:42:53.900Z,81.30
2023-02-11T00:45:21.570Z,81.46
2023-02-11T00:47:48.618Z,81.07
2023-02-11T00:50:15.537Z,81.38
2023-02-11T00:52:42.438Z,81.32
2023-02-11T00:55:09.437Z,81.42
2023-02-11T00:57:36.371Z,81.63
2023-02-11T01:00:05.311Z,81.56
2023-02-11T01:02:32.225Z,81.49
2023-02-11T01:05:00.192Z,81.54
2023-02-11T01:07:28.108Z,81.56
2023-02-11T01:09:55.011Z,81.66
2023-02-11T01:12:21.987Z,81.62
2023-02-11T01:14:48.906Z,81.56
2023-02-11T01:17:16.163Z,81.66
2023-02-11T01:19:43.090Z,81.62
2023-02-11T01:22:10.054Z,81.74
2023-02-11T01:24:36.949Z,81.61
2023-02-11T01:27:03.900Z,81.51
2023-02-11T01:29:30.851Z,81.82
2023-02-11T01:31:57.833Z,81.68
2023-02-11T01:34:24.775Z,81.66
2023-02-11T01:36:51.749Z,81.74
2023-02-11T01:39:18.738Z,81.75
2023-02-11T01:41:45.634Z,81.76
2023-02-11T01:44:37.179Z,81.69
2023-02-11T01:47:07.323Z,81.79
2023-02-11T01:49:36.840Z,81.95
2023-02-11T01:52:10.761Z,81.85
2023-02-11T01:54:59.408Z,81.82
2023-02-11T01:57:27.538Z,81.88
2023-02-11T02:00:18.376Z,81.84
2023-02-11T02:03:00.586Z,82.11
2023-02-11T02:05:48.153Z,81.93
2023-02-11T02:08:38.286Z,82.12
2023-02-11T02:11:05.454Z,81.97
2023-02-11T02:13:33.842Z,82.31
2023-02-11T02:16:04.141Z,82.17
2023-02-11T02:18:52.926Z,82.11
2023-02-11T02:21:19.828Z,82.34
2023-02-11T02:24:14.165Z,82.31
2023-02-11T02:26:53.410Z,82.29
2023-02-11T02:29:57.452Z,82.25
2023-02-11T02:32:24.345Z,82.22
2023-02-11T02:34:57.163Z,82.35
2023-02-11T02:37:45.274Z,82.66
2023-02-11T02:40:16.652Z,82.55
2023-02-11T02:42:43.603Z,82.62
2023-02-11T02:45:11.564Z,82.73
2023-02-11T02:47:41.235Z,82.74
2023-02-11T02:50:09.167Z,82.69
2023-02-11T02:53:14.689Z,82.78
2023-02-11T02:55:48.266Z,82.95
2023-02-11T02:58:27.396Z,83.00
2023-02-11T03:01:36.464Z,82.83
2023-02-11T03:04:24.360Z,83.01
2023-02-11T03:06:59.536Z,82.93
2023-02-11T03:09:32.719Z,82.84
2023-02-11T03:12:01.112Z,82.99
2023-02-11T03:14:28.102Z,83.06
2023-02-11T03:16:55.271Z,83.13
2023-02-11T03:19:33.852Z,83.30
2023-02-11T03:22:01.042Z,83.19
2023-02-11T03:24:39.296Z,83.29
2023-02-11T03:27:22.044Z,83.20
2023-02-11T03:29:54.375Z,83.25
2023-02-11T03:32:28.488Z,83.34
2023-02-11T03:35:12.199Z,83.52
2023-02-11T03:37:42.496Z,83.64
2023-02-11T03:40:15.773Z,83.42
2023-02-11T03:43:10.234Z,83.50
2023-02-11T03:45:37.840Z,83.58
2023-02-11T03:48:09.119Z,83.66
2023-02-11T03:50:36.012Z,83.60
2023-02-11T03:53:03.196Z,83.57
2023-02-11T03:55:30.185Z,83.56
2023-02-11T03:57:57.097Z,83.71
2023-02-11T04:00:35.656Z,83.65
2023-02-11T04:03:03.385Z,83.81
2023-02-11T04:05:30.755Z,83.57
2023-02-11T04:07:57.773Z,83.92
2023-02-11T04:10:24.771Z,83.75
2023-02-11T04:12:51.698Z,84.00
2023-02-11T04:15:19.103Z,83.99
2023-02-11T04:17:46.010Z,83.97
2023-02-11T04:20:12.982Z,84.04
2023-02-11T04:22:39.981Z,83.81
2023-02-11T04:25:07.851Z,84.09
2023-02-11T04:27:34.991Z,83.92
2023-02-11T04:30:01.973Z,84.06
2023-02-11T04:32:28.882Z,84.16
2023-02-11T04:34:55.788Z,84.26
2023-02-11T04:37:22.696Z,84.28
2023-02-11T04:39:49.593Z,84.40
2023-02-11T04:42:16.529Z,84.38
2023-02-11T04:44:43.554Z,84.23
2023-02-11T06:03:57.411Z,84.86
2023-02-11T06:06:24.827Z,85.22
2023-02-11T06:08:51.781Z,85.22
2023-02-11T06:11:20.414Z,85.19
2023-02-11T06:13:47.705Z,85.53
2023-02-11T06:16:14.888Z,85.50
2023-02-11T06:18:41.827Z,85.39
2023-02-11T06:21:12.413Z,85.33
2023-02-11T06:23:39.509Z,85.59
2023-02-11T06:26:09.020Z,85.64
2023-02-11T06:28:36.277Z,85.60
2023-02-11T06:31:06.979Z,85.82
2023-02-11T06:33:34.675Z,85.83
2023-02-11T06:36:01.892Z,85.79
2023-02-11T06:38:28.790Z,85.82
2023-02-11T06:40:55.717Z,85.70
2023-02-11T06:43:22.790Z,85.92
2023-02-11T06:45:54.526Z,85.77
2023-02-11T06:48:21.834Z,85.83
2023-02-11T06:50:51.830Z,85.78
2023-02-11T06:53:19.099Z,85.85
2023-02-11T06:55:46.016Z,86.10
2023-02-11T06:58:12.914Z,86.10
2023-02-11T07:00:39.902Z,85.96
2023-02-11T07:03:06.844Z,86.02
2023-02-11T07:05:34.386Z,86.18
2023-02-11T07:08:01.413Z,86.12
2023-02-11T07:10:28.427Z,86.28
2023-02-11T07:12:57.783Z,86.24
2023-02-11T07:15:26.122Z,86.10
2023-02-11T07:17:53.057Z,86.39
2023-02-11T07:20:20.261Z,86.14
2023-02-11T07:22:47.226Z,86.40
2023-02-11T07:25:14.509Z,86.35
2023-02-11T07:27:41.458Z,86.25
2023-02-11T07:30:09.231Z,86.46
2023-02-11T07:32:36.128Z,86.31
2023-02-11T07:35:04.045Z,86.42
2023-02-11T07:37:31.157Z,86.63
2023-02-11T07:39:58.084Z,86.42
2023-02-11T07:42:24.992Z,86.50
2023-02-11T07:44:51.901Z,86.65
2023-02-11T07:47:19.085Z,86.71
2023-02-11T07:49:46.040Z,86.67
2023-02-11T07:52:12.955Z,86.45
2023-02-11T07:54:39.868Z,86.57
2023-02-11T07:57:06.802Z,86.79
2023-02-11T07:59:33.820Z,86.74
2023-02-11T08:02:01.040Z,86.70
2023-02-11T08:04:28.014Z,86.62
2023-02-11T08:06:59.074Z,86.72
2023-02-11T08:09:26.150Z,86.74
2023-02-11T08:11:53.061Z,86.80
2023-02-11T08:14:20.689Z,86.68
2023-02-11T08:16:47.886Z,86.73
2023-02-11T08:19:16.340Z,86.75
2023-02-11T08:21:43.339Z,86.94
2023-02-11T08:24:10.297Z,86.78
2023-02-11T08:26:39.896Z,86.86
2023-02-11T08:29:10.787Z,86.81
2023-02-11T08:31:40.093Z,86.96
2023-02-11T08:34:11.563Z,86.92
2023-02-11T08:36:39.963Z,86.90
2023-02-11T08:39:18.499Z,87.07
2023-02-11T08:41:49.123Z,86.78
2023-02-11T08:44:17.586Z,87.22
2023-02-11T08:46:44.573Z,87.08
2023-02-11T08:49:11.668Z,86.99
2023-02-11T08:51:39.118Z,87.07
2023-02-11T08:54:09.568Z,86.92
2023-02-11T08:56:37.653Z,87.21
2023-02-11T08:59:04.877Z,86.99
2023-02-11T09:01:32.258Z,87.22
2023-02-11T09:03:59.468Z,87.16
2023-02-11T09:06:27.385Z,87.02
2023-02-11T09:08:56.931Z,87.13
2023-02-11T09:11:31.397Z,86.88
2023-02-11T09:13:58.856Z,87.16
2023-02-11T09:16:29.714Z,87.11
2023-02-11T09:19:01.664Z,87.12
2023-02-11T09:21:29.481Z,86.94
2023-02-11T09:23:57.027Z,86.89
2023-02-11T09:26:31.211Z,87.11
2023-02-11T09:28:58.408Z,87.04
2023-02-11T09:31:26.525Z,87.09
2023-02-11T09:33:57.528Z,86.80
2023-02-11T09:36:26.492Z,86.88
2023-02-11T09:38:53.511Z,86.99
2023-02-11T09:41:23.544Z,86.96
2023-02-11T09:43:57.633Z,86.97
2023-02-11T09:46:25.195Z,86.69
2023-02-11T09:48:53.728Z,86.79
2023-02-11T09:51:42.448Z,86.86
2023-02-11T09:54:21.825Z,86.72
2023-02-11T09:56:49.139Z,86.79
2023-02-11T09:59:16.627Z,86.48
2023-02-11T10:01:50.595Z,86.48
2023-02-11T10:04:44.832Z,86.71
2023-02-11T10:07:33.064Z,86.53
2023-02-11T10:10:17.797Z,86.40
2023-02-11T10:12:54.873Z,86.33
2023-02-11T10:15:31.510Z,86.15
2023-02-11T10:18:16.500Z,86.19
2023-02-11T10:23:25.860Z,85.96
2023-02-11T10:25:54.759Z,85.82
2023-02-11T10:28:43.118Z,85.94
2023-02-11T10:31:15.094Z,85.92
2023-02-11T10:34:01.608Z,85.77
2023-02-11T10:36:31.117Z,85.59
2023-02-11T10:39:02.880Z,85.65
2023-02-11T10:41:33.225Z,85.61
2023-02-11T10:44:01.066Z,85.79
2023-02-11T10:46:31.677Z,85.58
2023-02-11T10:48:58.760Z,85.58
2023-02-11T10:51:27.643Z,85.58
2023-02-11T10:54:09.691Z,85.52
2023-02-11T10:56:40.372Z,85.60
2023-02-11T10:59:28.543Z,85.54
2023-02-11T11:02:01.187Z,85.29
2023-02-11T11:04:32.950Z,85.45
2023-02-11T11:07:15.641Z,85.42
2023-02-11T11:09:56.838Z,85.45
2023-02-11T11:12:42.168Z,85.32
2023-02-11T11:15:19.974Z,85.24
2023-02-11T11:17:46.913Z,85.23
2023-02-11T11:20:22.631Z,85.27
2023-02-11T11:22:50.483Z,85.10
2023-02-11T11:25:25.609Z,85.10
2023-02-11T11:27:55.033Z,85.10
2023-02-11T11:30:22.219Z,85.09
2023-02-11T11:32:49.186Z,85.17
2023-02-11T11:35:28.009Z,84.96
2023-02-11T11:38:02.562Z,84.79
2023-02-11T11:40:34.257Z,84.44
2023-02-11T11:43:13.433Z,84.79
2023-02-11T11:46:00.176Z,84.94
2023-02-11T11:48:37.484Z,84.71
2023-02-11T11:51:06.466Z,84.66
2023-02-11T11:53:39.355Z,84.52
2023-02-11T11:56:23.399Z,84.23
2023-02-11T11:58:50.485Z,84.18
2023-02-11T12:01:45.321Z,84.21
2023-02-11T12:04:30.533Z,84.15
2023-02-11T12:07:26.119Z,84.08
2023-02-11T12:10:05.039Z,83.90
2023-02-11T12:12:50.094Z,83.96
2023-02-11T12:15:23.264Z,83.75
2023-02-11T12:18:22.467Z,83.85
2023-02-11T12:21:17.750Z,83.81
2023-02-11T12:24:06.655Z,83.76
2023-02-11T12:26:45.078Z,83.66
2023-02-11T12:29:33.795Z,83.52
2023-02-11T12:32:18.104Z,83.46
2023-02-11T12:35:05.415Z,83.16
2023-02-11T12:37:45.663Z,83.00
2023-02-11T12:40:22.459Z,82.94
2023-02-11T12:43:17.595Z,82.72
2023-02-11T12:45:53.550Z,82.49
2023-02-11T12:48:54.505Z,82.43
2023-02-11T12:51:46.251Z,82.38
2023-02-11T12:54:25.722Z,82.16
2023-02-11T12:57:22.405Z,82.09
2023-02-11T13:00:02.356Z,82.11
2023-02-11T13:03:03.228Z,81.93
2023-02-11T13:05:49.915Z,81.79
2023-02-11T13:08:28.175Z,81.74
2023-02-11T13:10:59.959Z,81.71
2023-02-11T13:13:36.081Z,81.71
2023-02-11T13:16:11.325Z,81.45
2023-02-11T13:19:03.960Z,81.47
2023-02-11T13:22:04.036Z,81.59
2023-02-11T13:24:44.326Z,81.59
2023-02-11T13:27:42.837Z,81.46
2023-02-11T13:30:22.383Z,81.35
2023-02-11T13:32:55.745Z,81.28
2023-02-11T13:35:35.707Z,81.20
2023-02-11T13:38:06.222Z,81.11
2023-02-11T13:40:39.444Z,81.04
2023-02-11T13:43:07.874Z,81.03
2023-02-11T13:45:41.526Z,80.95
2023-02-11T13:48:35.267Z,80.98
2023-02-11T13:51:07.966Z,80.97
2023-02-11T13:54:04.406Z,80.90
2023-02-11T13:56:36.276Z,80.91
2023-02-11T13:59:05.728Z,80.82
2023-02-11T14:01:42.804Z,80.70
2023-02-11T14:04:43.158Z,80.80
2023-02-11T14:07:40.850Z,80.74
2023-02-11T14:10:42.649Z,80.60
2023-02-11T14:13:31.160Z,80.69
2023-02-11T14:16:16.963Z,80.69
2023-02-11T14:18:47.616Z,80.55
2023-02-11T14:21:24.182Z,80.58
2023-02-11T14:23:54.408Z,80.48
2023-02-11T14:26:25.590Z,80.66
2023-02-11T14:28:54.044Z,80.43
2023-02-11T14:31:39.338Z,80.41
2023-02-11T14:34:34.416Z,80.39
2023-02-11T14:37:34.614Z,80.39
2023-02-11T14:40:24.836Z,80.25
2023-02-11T14:42:52.290Z,80.26
2023-02-11T14:45:25.577Z,80.21
2023-02-11T14:48:10.063Z,80.25
2023-02-11T14:50:40.203Z,80.18
2023-02-11T14:53:07.549Z,80.12
2023-02-11T14:55:37.724Z,80.02
2023-02-11T14:58:06.189Z,79.92
2023-02-11T15:00:33.104Z,79.82
2023-02-11T15:03:00.103Z,79.77
2023-02-11T15:05:29.100Z,79.71
2023-02-11T15:07:56.814Z,79.81
2023-02-11T15:10:33.653Z,79.93
2023-02-11T15:13:01.449Z,79.79
2023-02-11T15:15:29.713Z,79.67
2023-02-11T15:17:57.900Z,79.74
2023-02-11T15:20:27.325Z,79.64
2023-02-11T15:23:05.894Z,79.93
2023-02-11T15:25:34.274Z,79.61
2023-02-11T15:28:01.694Z,79.73
2023-02-11T15:30:31.225Z,79.52
2023-02-11T15:33:03.288Z,79.60
2023-02-11T15:35:33.288Z,79.59
2023-02-11T15:38:01.392Z,79.64
2023-02-11T15:40:33.394Z,79.52
2023-02-11T15:43:05.190Z,79.49
2023-02-11T15:45:34.866Z,79.52
2023-02-11T15:48:28.009Z,79.42
2023-02-11T15:50:59.755Z,79.33
2023-02-11T15:53:34.297Z,79.31
2023-02-11T15:56:25.365Z,79.45
2023-02-11T15:58:54.092Z,79.49
2023-02-11T16:01:33.065Z,79.40
2023-02-11T16:04:04.119Z,79.42
2023-02-11T16:06:40.217Z,79.54
2023-02-11T16:09:12.956Z,79.66
2023-02-11T16:11:45.925Z,79.71
2023-02-11T16:14:39.177Z,79.66
2023-02-11T16:17:11.692Z,79.65
2023-02-11T16:19:46.449Z,79.65
2023-02-11T16:22:19.307Z,79.84
2023-02-11T16:24:47.894Z,79.73
2023-02-11T16:27:30.916Z,79.70
2023-02-11T16:29:57.966Z,79.78
2023-02-11T16:32:26.683Z,79.71
2023-02-11T16:34:55.242Z,79.81
2023-02-11T16:37:22.192Z,79.85
2023-02-11T16:39:49.240Z,79.93
2023-02-11T16:42:16.171Z,79.82
2023-02-11T16:44:43.083Z,79.73
2023-02-11T16:47:23.301Z,79.58
2023-02-11T16:49:50.281Z,79.74
2023-02-11T16:52:17.840Z,79.76
2023-02-11T16:54:44.765Z,79.72
2023-02-11T16:57:16.642Z,79.77
2023-02-11T16:59:43.871Z,79.77
2023-02-11T17:02:27.937Z,79.94
2023-02-11T17:04:55.697Z,79.82
2023-02-11T17:07:22.860Z,79.55
2023-02-11T17:09:49.800Z,79.86
2023-02-11T17:12:16.794Z,79.81
2023-02-11T17:14:43.945Z,79.85
2023-02-11T17:17:11.226Z,79.91
2023-02-11T17:19:38.777Z,79.87
2023-02-11T17:22:06.051Z,79.93
2023-02-11T17:24:32.984Z,79.86
2023-02-11T17:26:59.927Z,79.95
2023-02-11T17:29:27.337Z,79.99
2023-02-11T17:31:54.572Z,80.23
2023-02-11T17:34:22.435Z,79.70
2023-02-11T17:36:49.593Z,79.90
2023-02-11T17:39:16.584Z,80.10
2023-02-11T17:41:43.571Z,80.17
2023-02-11T17:44:12.361Z,80.13
2023-02-11T17:46:39.463Z,80.05
2023-02-11T17:49:06.399Z,79.92
2023-02-11T17:51:35.163Z,80.02
2023-02-11T17:54:05.153Z,79.99
2023-02-11T17:56:33.203Z,80.27
2023-02-11T17:59:02.476Z,79.98
2023-02-11T18:01:31.064Z,79.95
2023-02-11T18:03:58.110Z,80.14
2023-02-11T18:06:25.218Z,80.13
2023-02-11T18:08:52.291Z,80.08
2023-02-11T18:11:19.319Z,80.09
2023-02-11T18:13:51.473Z,80.14
2023-02-11T18:16:21.237Z,80.41
2023-02-11T18:18:48.180Z,80.33
2023-02-11T18:21:16.417Z,80.07
2023-02-11T18:23:43.501Z,80.45
2023-02-11T18:26:11.716Z,80.27
2023-02-11T18:28:39.378Z,80.57
2023-02-11T18:31:06.727Z,80.48
2023-02-11T18:33:34.079Z,80.72
2023-02-11T18:36:08.247Z,80.51
2023-02-11T18:38:35.575Z,80.63
2023-02-11T18:41:02.811Z,80.63
2023-02-11T18:43:31.796Z,80.64
2023-02-11T18:45:58.801Z,80.74
2023-02-11T18:48:28.598Z,80.94
2023-02-11T18:50:56.116Z,81.09
2023-02-11T18:53:23.586Z,80.87
2023-02-11T18:55:51.424Z,80.89
2023-02-11T18:58:19.348Z,81.14
2023-02-11T19:00:47.917Z,81.13
2023-02-11T19:03:14.898Z,81.09
2023-02-11T19:05:51.168Z,81.07
2023-02-11T19:08:19.116Z,81.02
2023-02-11T19:10:47.031Z,81.28
2023-02-11T19:13:14.330Z,81.05
2023-02-11T19:15:45.171Z,81.31
2023-02-11T19:18:13.463Z,81.27
2023-02-11T19:20:43.760Z,81.21
2023-02-11T19:23:10.989Z,81.40
2023-02-11T19:25:38.062Z,81.55
2023-02-11T19:28:05.043Z,81.38
2023-02-11T19:30:32.101Z,81.75
2023-02-11T19:32:59.385Z,81.63
2023-02-11T19:35:26.318Z,81.99
2023-02-11T19:37:53.290Z,81.75
2023-02-11T19:40:21.387Z,81.93
2023-02-11T19:42:48.836Z,81.78
2023-02-11T19:45:15.836Z,81.94
2023-02-11T19:47:42.736Z,81.68
2023-02-11T19:50:10.028Z,81.75
2023-02-11T19:52:40.856Z,81.64
2023-02-11T19:55:08.826Z,81.67
2023-02-11T19:57:36.770Z,81.75
2023-02-11T20:00:04.904Z,81.63
2023-02-11T20:02:33.243Z,81.67
2023-02-11T20:05:00.425Z,81.61
2023-02-11T20:07:27.358Z,81.54
2023-02-11T20:09:54.442Z,81.85
2023-02-11T20:12:21.382Z,82.04
2023-02-11T20:14:48.916Z,82.07
2023-02-11T20:17:15.892Z,81.87
2023-02-11T20:19:42.947Z,81.82
2023-02-11T20:22:09.855Z,82.02
2023-02-11T20:24:36.807Z,81.88
2023-02-11T20:27:03.775Z,81.99
2023-02-11T20:29:31.908Z,82.31
2023-02-11T20:31:59.399Z,82.07
2023-02-11T20:34:26.547Z,82.17
2023-02-11T20:36:54.203Z,82.44
2023-02-11T20:39:22.679Z,82.26
2023-02-11T20:41:50.080Z,82.38
2023-02-11T20:44:17.007Z,82.39
2023-02-11T20:46:48.622Z,82.36
2023-02-11T20:49:19.053Z,82.60
2023-02-11T20:51:46.404Z,82.32
2023-02-11T20:54:14.948Z,82.23
2023-02-11T20:56:42.044Z,82.16
2023-02-11T20:59:09.483Z,82.21
2023-02-11T21:01:41.951Z,82.28
2023-02-11T21:04:20.309Z,82.43
2023-02-11T21:06:49.056Z,82.25
2023-02-11T21:09:20.353Z,82.18
2023-02-11T21:11:47.921Z,82.42
2023-02-11T21:14:14.952Z,82.46
2023-02-11T21:16:42.219Z,82.57
2023-02-11T21:19:09.540Z,82.59
2023-02-11T21:21:37.916Z,82.53
2023-02-11T21:24:05.787Z,82.47
2023-02-11T21:26:33.175Z,82.66
2023-02-11T21:29:00.111Z,82.41
2023-02-11T21:31:30.051Z,82.23
2023-02-11T21:33:57.302Z,82.18
2023-02-11T21:36:24.406Z,82.27
2023-02-11T21:38:51.474Z,82.26
2023-02-11T21:41:19.930Z,82.41
2023-02-11T21:43:50.352Z,82.44
2023-02-11T21:46:17.786Z,82.11
2023-02-11T21:48:44.924Z,82.32
2023-02-11T21:51:15.763Z,82.35
2023-02-11T21:53:42.918Z,82.18
2023-02-11T21:56:18.691Z,82.29
2023-02-11T21:58:46.430Z,82.59
2023-02-11T22:01:15.187Z,82.39
2023-02-11T22:03:42.540Z,82.38
2023-02-11T22:06:17.858Z,82.60
2023-02-11T22:08:44.774Z,82.49
2023-02-11T22:11:12.506Z,82.48
2023-02-11T22:13:40.133Z,82.34
2023-02-11T22:16:09.585Z,82.36
2023-02-11T22:18:36.723Z,82.24
2023-02-11T22:21:05.148Z,82.54
2023-02-11T22:23:32.144Z,82.50
2023-02-11T22:25:59.699Z,82.47
2023-02-11T22:28:27.047Z,82.59
2023-02-11T22:30:57.812Z,82.64
2023-02-11T22:33:26.138Z,82.53
2023-02-11T22:36:08.997Z,82.64
2023-02-11T22:38:36.568Z,82.52
2023-02-11T22:41:08.742Z,82.84
2023-02-11T22:43:35.916Z,82.45
2023-02-11T22:46:04.030Z,82.76
2023-02-11T22:48:31.239Z,82.59
2023-02-11T22:51:04.340Z,82.46
2023-02-11T22:53:31.329Z,82.73
2023-02-11T22:56:02.583Z,82.50
2023-02-11T22:58:29.653Z,82.52
2023-02-11T23:00:56.587Z,82.40
2023-02-11T23:03:23.540Z,82.41
2023-02-11T23:05:50.475Z,82.60
2023-02-11T23:08:17.627Z,82.71
2023-02-11T23:10:44.554Z,82.55
2023-02-11T23:13:11.545Z,82.57
2023-02-11T23:15:42.935Z,82.77
2023-02-11T23:18:10.319Z,82.54
2023-02-11T23:20:39.182Z,82.94
2023-02-11T23:23:06.160Z,82.78
2023-02-11T23:25:33.415Z,82.84
2023-02-11T23:28:00.994Z,83.17
2023-02-11T23:30:28.409Z,83.07
2023-02-11T23:32:55.465Z,83.28
2023-02-11T23:35:23.225Z,83.21
2023-02-11T23:37:50.990Z,83.14
2023-02-11T23:40:19.072Z,83.20
2023-02-11T23:42:46.066Z,83.25
2023-02-11T23:45:13.528Z,83.19
2023-02-11T23:47:41.635Z,83.38
2023-02-11T23:50:09.555Z,83.33
2023-02-11T23:52:36.837Z,83.47
2023-02-11T23:55:04.090Z,83.62
2023-02-11T23:57:34.298Z,83.39
